Time;durP1;ratioP1;P1;durP2;ratioP2;P2;SDS_P1;SDS_P2;PMS_P1;PMS_P2;Temp;Humidity;BMP_temperature;BMP_pressure;BME280_temperature;BME280_humidity;BME280_pressure;Samples;Min_cycle;Max_cycle;Signal;HPM_P1;HPM_P2
2023/02/08 00:00:59;;;;;;;0.00;0.00;;;;;;;-0.13;42.24;96683.78;5092001;28;20191;-74
2023/02/08 00:03:27;;;;;;;0.03;0.03;;;;;;;-0.22;42.47;96674.34;5092928;28;20600;-66
2023/02/08 00:05:54;;;;;;;0.00;0.00;;;;;;;0.09;41.69;96686.91;5092039;28;20191;-66
2023/02/08 00:08:21;;;;;;;0.00;0.00;;;;;;;0.24;41.80;96698.31;5099912;28;20194;-71
2023/02/08 00:10:49;;;;;;;0.00;0.00;;;;;;;0.47;41.20;96687.41;5091776;28;20787;-71
2023/02/08 00:13:16;;;;;;;0.00;0.00;;;;;;;-0.04;42.28;96692.41;5092261;28;20203;-68
2023/02/08 00:15:44;;;;;;;0.00;0.00;;;;;;;0.35;41.31;96693.72;5092401;28;20199;-72
2023/02/08 00:18:11;;;;;;;0.00;0.00;;;;;;;-0.18;41.73;96685.16;5092138;28;20533;-70
2023/02/08 00:20:40;;;;;;;0.30;0.30;;;;;;;-0.56;42.90;96680.25;5091951;28;20203;-67
2023/02/08 00:23:07;;;;;;;0.00;0.00;;;;;;;0.07;42.17;96706.84;5098403;28;20772;-68
2023/02/08 00:25:35;;;;;;;0.00;0.00;;;;;;;-0.10;42.17;96714.41;5094243;28;20207;-66
2023/02/08 00:28:02;;;;;;;0.00;0.00;;;;;;;-0.06;42.36;96707.22;5093512;28;20342;-69
2023/02/08 00:30:31;;;;;;;0.52;0.52;;;;;;;0.42;41.04;96705.06;5091054;28;20195;-73
2023/02/08 00:33:00;;;;;;;0.00;0.00;;;;;;;0.40;40.99;96703.59;5091403;28;20195;-70
2023/02/08 00:35:27;;;;;;;0.00;0.00;;;;;;;0.18;41.49;96707.44;5090888;28;20191;-72
2023/02/08 00:37:55;;;;;;;0.00;0.00;;;;;;;0.11;42.03;96727.00;5091097;28;20252;-68
2023/02/08 00:40:22;;;;;;;0.70;0.70;;;;;;;0.44;41.41;96721.19;5091375;28;20223;-70
2023/02/08 00:42:49;;;;;;;0.43;0.43;;;;;;;0.33;41.10;96705.94;5090192;28;20199;-71
2023/02/08 00:45:16;;;;;;;0.10;0.10;;;;;;;0.83;40.68;96729.41;5091346;28;20215;-71
2023/02/08 00:47:43;;;;;;;0.28;0.28;;;;;;;0.73;40.76;96724.34;5090607;28;20195;-69
2023/02/08 00:50:10;;;;;;;0.00;0.00;;;;;;;0.53;41.17;96732.41;5089184;28;20268;-71
2023/02/08 00:52:37;;;;;;;0.00;0.00;;;;;;;0.32;41.02;96694.03;5091387;28;20199;-71
2023/02/08 00:55:05;;;;;;;0.00;0.00;;;;;;;-0.63;42.84;96720.38;5091988;28;20244;-68
2023/02/08 00:57:33;;;;;;;0.00;0.00;;;;;;;-0.26;42.67;96739.19;5091629;28;20264;-72
2023/02/08 01:00:00;;;;;;;0.52;0.52;;;;;;;0.32;41.64;96719.81;5091607;28;20199;-74
2023/02/08 01:02:27;;;;;;;0.10;0.10;;;;;;;0.71;41.04;96728.81;5091708;28;20191;-72
2023/02/08 01:04:54;;;;;;;1.10;1.10;;;;;;;0.92;40.86;96733.66;5091462;28;20229;-73
2023/02/08 01:07:21;;;;;;;0.00;0.00;;;;;;;0.81;40.72;96732.13;5092579;28;20210;-71
2023/02/08 01:09:48;;;;;;;0.00;0.00;;;;;;;0.82;40.86;96744.06;5075682;28;20191;-67
2023/02/08 01:12:15;;;;;;;0.00;0.00;;;;;;;0.85;41.02;96730.88;5114568;28;20195;-70
2023/02/08 01:14:42;;;;;;;0.00;0.00;;;;;;;0.69;40.75;96735.91;5101124;28;20196;-68
2023/02/08 01:17:13;;;;;;;1.85;0.90;;;;;;;0.51;41.34;96729.97;5089800;28;20203;-74
2023/02/08 01:19:40;;;;;;;0.13;0.13;;;;;;;0.83;41.02;96730.22;5090359;28;20214;-73
2023/02/08 01:22:08;;;;;;;0.00;0.00;;;;;;;0.57;41.04;96744.84;5090595;28;20248;-72
2023/02/08 01:24:35;;;;;;;0.57;0.57;;;;;;;-0.50;42.64;96731.19;5090752;28;20745;-74
2023/02/08 01:27:02;;;;;;;0.00;0.00;;;;;;;-0.83;43.73;96739.44;5091479;28;20277;-68
2023/02/08 01:29:29;;;;;;;4.78;4.32;;;;;;;-0.44;43.83;96733.19;5091870;28;20207;-70
2023/02/08 01:31:58;;;;;;;0.00;0.00;;;;;;;-0.49;43.51;96727.63;5087964;28;20238;-70
2023/02/08 01:34:28;;;;;;;0.00;0.00;;;;;;;-0.10;42.94;96729.06;5076679;28;20652;-74
2023/02/08 01:36:55;;;;;;;0.00;0.00;;;;;;;-0.46;43.62;96735.09;5072564;28;20206;-67
2023/02/08 01:39:21;;;;;;;0.63;0.63;;;;;;;-0.84;44.10;96727.53;5090878;28;20187;-72
2023/02/08 01:41:50;;;;;;;0.00;0.00;;;;;;;-0.40;43.56;96726.81;5091591;28;20653;-69
2023/02/08 01:44:17;;;;;;;5.35;4.88;;;;;;;0.12;42.72;96732.97;5073184;28;20227;-69
2023/02/08 01:46:47;;;;;;;0.00;0.00;;;;;;;0.44;42.24;96733.31;5072806;28;20195;-70
2023/02/08 01:49:20;;;;;;;13.38;4.68;;;;;;;0.49;42.37;96737.06;5072389;28;20240;-72
2023/02/08 01:52:03;;;;;;;0.00;0.00;;;;;;;0.58;42.06;96736.16;5089435;28;20333;-69
2023/02/08 01:54:37;;;;;;;0.00;0.00;;;;;;;0.50;42.43;96743.81;5090152;28;20187;-73
2023/02/08 01:57:04;;;;;;;0.05;0.05;;;;;;;0.51;42.41;96742.84;5090761;28;20192;-70
2023/02/08 01:59:44;;;;;;;0.22;0.22;;;;;;;0.48;41.62;96748.31;5071846;28;20217;-70
2023/02/08 02:02:15;;;;;;;0.05;0.05;;;;;;;0.52;42.00;96749.66;5089768;28;20553;-68
2023/02/08 02:04:43;;;;;;;0.00;0.00;;;;;;;0.61;41.87;96746.19;5091358;28;20223;-71
2023/02/08 02:07:12;;;;;;;0.00;0.00;;;;;;;0.81;41.43;96742.47;5089918;28;20226;-69
2023/02/08 02:09:41;;;;;;;0.13;0.13;;;;;;;1.02;41.59;96745.50;5090594;28;20546;-72
2023/02/08 02:12:10;;;;;;;0.00;0.00;;;;;;;0.94;40.96;96736.91;5071432;28;20245;-72
2023/02/08 02:14:38;;;;;;;0.80;0.75;;;;;;;1.14;41.15;96753.00;5081305;28;20660;-69
2023/02/08 02:17:05;;;;;;;0.00;0.00;;;;;;;1.11;40.96;96753.31;5089655;28;20282;-68
2023/02/08 02:19:48;;;;;;;0.00;0.00;;;;;;;1.31;41.01;96754.72;5090183;28;20226;-73
2023/02/08 02:22:30;;;;;;;3.83;2.65;;;;;;;1.09;41.09;96760.41;5077159;28;20199;-69
2023/02/08 02:25:17;;;;;;;0.00;0.00;;;;;;;0.83;41.28;96761.19;5089449;28;20244;-68
2023/02/08 02:28:09;;;;;;;0.43;0.43;;;;;;;1.00;41.08;96755.16;5092621;28;20287;-71
2023/02/08 02:30:55;;;;;;;0.00;0.00;;;;;;;1.04;41.51;96774.56;5078181;28;20252;-71
2023/02/08 02:33:37;;;;;;;0.08;0.08;;;;;;;1.34;41.38;96780.22;5089873;28;20195;-72
2023/02/08 02:36:21;;;;;;;0.43;0.43;;;;;;;1.26;41.16;96762.13;5089256;28;20203;-68
2023/02/08 02:39:04;;;;;;;4.53;2.00;;;;;;;1.36;41.52;96788.66;5090001;28;20195;-69
2023/02/08 02:45:12;;;;;;;1.27;1.20;;;;;;;1.16;42.21;96788.03;5090396;28;20219;-68
2023/02/08 02:47:55;;;;;;;0.28;0.28;;;;;;;1.21;42.40;96785.00;5072112;28;20290;-68
2023/02/08 02:50:30;;;;;;;0.30;0.30;;;;;;;1.35;42.17;96787.03;5093200;28;20191;-68
2023/02/08 02:53:13;;;;;;;1.50;1.40;;;;;;;1.20;42.42;96768.72;5090008;28;20237;-69
2023/02/08 02:55:45;;;;;;;0.00;0.00;;;;;;;1.39;42.20;96783.16;5089089;28;20225;-69
2023/02/08 02:58:15;;;;;;;0.00;0.00;;;;;;;0.97;42.43;96786.44;5090304;28;20195;-72
2023/02/08 03:00:42;;;;;;;0.10;0.10;;;;;;;0.88;42.89;96783.94;5089700;28;20218;-69
2023/02/08 03:03:20;;;;;;;2.65;1.13;;;;;;;1.08;42.81;96793.13;5089223;28;20202;-67
2023/02/08 03:05:48;;;;;;;0.20;0.20;;;;;;;0.94;42.95;96779.03;5088084;28;20234;-69
2023/02/08 03:08:23;;;;;;;0.05;0.05;;;;;;;1.06;42.14;96774.41;5089380;28;20710;-73
2023/02/08 03:11:18;;;;;;;0.03;0.03;;;;;;;1.18;42.14;96790.47;5092493;28;20202;-70
2023/02/08 03:14:23;;;;;;;0.00;0.00;;;;;;;1.08;41.69;96797.50;5082869;28;20207;-72
2023/02/08 03:17:17;;;;;;;0.10;0.10;;;;;;;0.24;43.46;96778.25;5080726;28;20283;-71
2023/02/08 03:20:08;;;;;;;0.63;0.63;;;;;;;0.55;43.06;96787.22;5093479;28;20195;-72
2023/02/08 03:22:41;;;;;;;0.00;0.00;;;;;;;0.89;42.30;96791.53;5093238;28;20202;-71
2023/02/08 03:25:18;;;;;;;0.75;0.75;;;;;;;0.78;42.42;96778.91;5092376;28;20215;-67
2023/02/08 03:28:11;;;;;;;0.00;0.00;;;;;;;0.64;42.73;96781.19;5093862;28;20223;-69
2023/02/08 03:30:51;;;;;;;1.55;1.45;;;;;;;0.57;42.99;96774.97;5081884;28;20202;-72
2023/02/08 03:33:47;;;;;;;0.55;0.55;;;;;;;0.81;42.73;96783.75;5093044;28;20199;-72
2023/02/08 03:36:31;;;;;;;0.00;0.00;;;;;;;1.01;42.02;96790.34;5085215;28;20685;-72
2023/02/08 03:39:01;;;;;;;0.00;0.00;;;;;;;0.84;42.69;96788.59;5074883;28;20199;-74
2023/02/08 03:41:35;;;;;;;0.55;0.55;;;;;;;0.82;42.82;96780.19;5092514;28;20191;-68
2023/02/08 03:44:11;;;;;;;0.10;0.10;;;;;;;0.72;42.52;96789.81;5092805;28;20241;-69
2023/02/08 03:46:48;;;;;;;0.00;0.00;;;;;;;0.78;42.85;96793.56;5093011;28;20194;-69
2023/02/08 03:49:23;;;;;;;1.38;1.10;;;;;;;0.82;42.25;96785.34;5093124;28;20226;-70
2023/02/08 03:51:51;;;;;;;0.63;0.63;;;;;;;0.80;42.88;96791.66;5092207;28;20240;-71
2023/02/08 03:54:21;;;;;;;0.00;0.00;;;;;;;0.94;42.64;96804.84;5093154;28;20195;-70
2023/02/08 03:57:03;;;;;;;0.28;0.28;;;;;;;1.08;42.29;96800.09;5092861;28;20253;-73
2023/02/08 03:59:36;;;;;;;3.80;3.50;;;;;;;0.84;42.89;96809.25;5092757;28;20654;-71
2023/02/08 04:02:06;;;;;;;0.35;0.35;;;;;;;0.78;42.39;96802.13;5092284;28;20207;-67
2023/02/08 04:04:38;;;;;;;1.85;1.38;;;;;;;0.81;42.47;96801.81;5093602;28;20211;-70
2023/02/08 04:07:05;;;;;;;0.13;0.13;;;;;;;0.94;42.21;96814.34;5092430;28;20199;-71
2023/02/08 04:09:32;;;;;;;0.00;0.00;;;;;;;0.75;42.39;96815.31;5093060;28;20215;-72
2023/02/08 04:11:59;;;;;;;0.45;0.40;;;;;;;0.49;43.37;96822.16;5092533;28;20226;-71
2023/02/08 04:14:26;;;;;;;0.17;0.17;;;;;;;0.36;43.36;96828.63;5092817;28;20737;-70
2023/02/08 04:16:54;;;;;;;0.00;0.00;;;;;;;0.66;43.22;96821.34;5093311;28;20663;-72
2023/02/08 04:19:21;;;;;;;0.40;0.40;;;;;;;0.69;42.20;96795.25;5113462;28;20259;-69
2023/02/08 04:21:48;;;;;;;1.13;1.08;;;;;;;0.80;42.39;96813.06;5095400;28;20195;-70
2023/02/08 04:24:15;;;;;;;0.00;0.00;;;;;;;0.63;42.69;96811.34;5092552;28;20290;-69
2023/02/08 04:26:42;;;;;;;0.00;0.00;;;;;;;0.53;42.88;96828.63;5094253;28;20573;-70
2023/02/08 04:29:09;;;;;;;0.00;0.00;;;;;;;0.69;42.45;96815.09;5096542;28;20191;-68
2023/02/08 04:31:36;;;;;;;3.20;2.15;;;;;;;0.87;41.91;96824.47;5092260;28;20280;-72
2023/02/08 04:34:03;;;;;;;0.85;0.85;;;;;;;0.80;41.82;96810.50;5092015;28;20191;-70
2023/02/08 04:36:30;;;;;;;0.80;0.80;;;;;;;0.60;42.28;96821.94;5092630;28;20268;-69
2023/02/08 04:38:57;;;;;;;0.00;0.00;;;;;;;0.55;41.79;96803.50;5092309;28;20195;-71
2023/02/08 04:41:24;;;;;;;1.05;1.00;;;;;;;0.69;41.62;96823.63;5090990;28;20199;-70
2023/02/08 04:43:50;;;;;;;0.43;0.43;;;;;;;0.58;42.33;96820.47;5092283;28;20219;-71
2023/02/08 04:46:17;;;;;;;2.67;2.17;;;;;;;0.64;42.22;96818.09;5091489;28;20219;-68
2023/02/08 04:48:44;;;;;;;0.85;0.85;;;;;;;0.64;42.44;96823.25;5091963;28;20183;-71
2023/02/08 04:51:11;;;;;;;3.20;1.75;;;;;;;0.58;41.97;96839.34;5073331;28;20205;-70
2023/02/08 04:53:38;;;;;;;0.38;0.38;;;;;;;0.66;41.89;96831.66;5091496;28;20249;-69
2023/02/08 04:56:05;;;;;;;0.00;0.00;;;;;;;0.53;42.15;96849.25;5091134;28;20203;-73
2023/02/08 04:58:32;;;;;;;0.68;0.45;;;;;;;0.40;42.66;96841.06;5091418;28;20191;-68
2023/02/08 05:00:59;;;;;;;2.90;1.33;;;;;;;0.51;42.10;96858.91;5072080;28;20195;-69
2023/02/08 05:03:25;;;;;;;3.15;1.20;;;;;;;0.53;42.00;96853.63;5084905;28;20218;-71
2023/02/08 05:05:59;;;;;;;0.10;0.10;;;;;;;0.74;41.91;96869.63;5088506;28;20223;-72
2023/02/08 05:08:27;;;;;;;1.50;1.40;;;;;;;0.70;41.82;96879.44;5090769;28;20200;-70
2023/02/08 05:10:54;;;;;;;0.52;0.52;;;;;;;0.65;41.91;96870.50;5090784;28;20214;-70
2023/02/08 05:13:20;;;;;;;0.30;0.28;;;;;;;0.41;41.55;96849.63;5091603;28;20621;-72
2023/02/08 05:15:47;;;;;;;0.90;0.90;;;;;;;0.66;41.55;96878.09;5090791;28;20701;-71
2023/02/08 05:18:14;;;;;;;0.10;0.10;;;;;;;0.53;41.75;96880.22;5091376;28;20323;-71
2023/02/08 05:20:41;;;;;;;0.00;0.00;;;;;;;0.40;41.69;96872.00;5090477;28;20252;-72
2023/02/08 05:23:08;;;;;;;0.15;0.15;;;;;;;0.52;41.76;96888.94;5091191;28;20206;-71
2023/02/08 05:25:37;;;;;;;0.82;0.82;;;;;;;0.51;41.40;96863.28;5090723;28;20226;-72
2023/02/08 05:28:04;;;;;;;0.20;0.20;;;;;;;0.54;41.80;96884.44;5090308;28;20579;-71
2023/02/08 05:30:31;;;;;;;2.40;2.28;;;;;;;0.40;41.61;96881.53;5088622;28;20740;-71
2023/02/08 05:32:57;;;;;;;0.00;0.00;;;;;;;0.44;42.13;96886.25;5090888;28;20241;-72
2023/02/08 05:35:24;;;;;;;0.57;0.57;;;;;;;0.24;42.29;96887.31;5092010;28;20638;-68
2023/02/08 05:37:51;;;;;;;0.32;0.32;;;;;;;0.17;42.99;96895.75;5091128;28;20252;-67
2023/02/08 05:40:18;;;;;;;0.68;0.68;;;;;;;0.25;43.05;96898.44;5090878;28;20195;-69
2023/02/08 05:42:46;;;;;;;3.20;1.73;;;;;;;-0.02;43.40;96896.66;5092150;28;20191;-67
2023/02/08 05:45:14;;;;;;;0.00;0.00;;;;;;;0.16;43.12;96909.59;5090267;28;20253;-67
2023/02/08 05:47:41;;;;;;;0.10;0.10;;;;;;;0.30;43.08;96891.91;5091195;28;20234;-68
2023/02/08 05:50:09;;;;;;;0.70;0.50;;;;;;;0.37;42.29;96905.84;5090372;28;20666;-68
2023/02/08 05:52:37;;;;;;;0.63;0.63;;;;;;;0.56;42.28;96886.88;5090681;28;20260;-68
2023/02/08 05:55:04;;;;;;;1.90;1.45;;;;;;;0.61;42.07;96895.78;5091162;28;20202;-68
2023/02/08 05:57:31;;;;;;;0.00;0.00;;;;;;;0.43;42.25;96897.53;5093362;28;20802;-66
2023/02/08 06:00:03;;;;;;;0.20;0.20;;;;;;;0.31;42.82;96911.56;5090675;28;20294;-64
2023/02/08 06:02:31;;;;;;;0.22;0.22;;;;;;;-0.21;43.17;96901.88;5093583;28;20678;-73
2023/02/08 06:04:58;;;;;;;0.03;0.03;;;;;;;-0.36;43.74;96895.53;5090197;28;20294;-75
2023/02/08 06:07:25;;;;;;;2.13;2.00;;;;;;;-0.48;44.17;96892.31;5093110;28;20210;-71
2023/02/08 06:09:53;;;;;;;25.90;6.30;;;;;;;-0.44;44.51;96898.00;5094169;28;20272;-74
2023/02/08 06:12:19;;;;;;;0.25;0.25;;;;;;;-0.50;44.60;96898.56;5089523;28;20191;-73
2023/02/08 06:14:46;;;;;;;0.63;0.63;;;;;;;-0.28;44.04;96898.22;5089480;28;20198;-70
2023/02/08 06:17:14;;;;;;;0.00;0.00;;;;;;;0.04;43.59;96882.41;5088023;28;20253;-71
2023/02/08 06:19:41;;;;;;;0.20;0.20;;;;;;;0.05;43.41;96896.91;5089535;28;20199;-73
2023/02/08 06:22:09;;;;;;;0.00;0.00;;;;;;;0.28;43.67;96919.59;5076141;28;20238;-70
2023/02/08 06:24:36;;;;;;;0.00;0.00;;;;;;;0.57;42.89;96920.25;5091185;28;20218;-70
2023/02/08 06:27:03;;;;;;;0.20;0.20;;;;;;;0.66;42.66;96914.22;5090299;28;20284;-73
2023/02/08 06:29:30;;;;;;;3.35;3.05;;;;;;;0.70;42.34;96905.25;5092013;28;20195;-72
2023/02/08 06:31:56;;;;;;;1.13;1.10;;;;;;;0.89;42.46;96920.59;5096756;28;20207;-71
2023/02/08 06:34:24;;;;;;;0.03;0.03;;;;;;;0.85;42.66;96916.69;5091041;28;20256;-73
2023/02/08 06:36:50;;;;;;;0.73;0.73;;;;;;;0.97;42.13;96928.41;5089970;28;20195;-72
2023/02/08 06:39:17;;;;;;;4.22;2.17;;;;;;;0.83;42.75;96934.09;5090436;28;20210;-72
2023/02/08 06:41:44;;;;;;;2.33;1.88;;;;;;;0.70;43.02;96923.31;5089600;28;20557;-72
2023/02/08 06:44:11;;;;;;;7.80;5.60;;;;;;;0.64;42.86;96931.63;5090234;28;20195;-70
2023/02/08 06:46:38;;;;;;;3.22;1.45;;;;;;;0.79;42.62;96919.84;5059795;28;20222;-76
2023/02/08 06:49:05;;;;;;;0.75;0.75;;;;;;;0.44;42.05;96899.13;5094954;28;20199;-73
2023/02/08 06:51:32;;;;;;;0.63;0.63;;;;;;;0.51;41.78;96905.34;5091657;28;20191;-75
2023/02/08 06:53:59;;;;;;;0.88;0.82;;;;;;;0.66;41.70;96934.88;5091661;28;20260;-78
2023/02/08 06:56:25;;;;;;;4.85;1.80;;;;;;;0.78;41.03;96933.72;5090440;28;20190;-75
2023/02/08 06:58:52;;;;;;;1.30;1.02;;;;;;;0.96;40.66;96926.81;5091545;28;20191;-76
2023/02/08 07:01:19;;;;;;;0.50;0.50;;;;;;;1.08;40.43;96934.34;5089472;28;20227;-74
2023/02/08 07:03:47;;;;;;;0.35;0.35;;;;;;;1.15;39.98;96935.38;5089330;28;20187;-72
2023/02/08 07:06:16;;;;;;;1.42;1.33;;;;;;;0.91;40.18;96929.00;5089791;28;20274;-72
2023/02/08 07:08:43;;;;;;;1.85;1.75;;;;;;;0.82;40.27;96932.44;5089797;28;20286;-73
2023/02/08 07:11:12;;;;;;;0.85;0.85;;;;;;;0.92;40.52;96940.97;5089827;28;20218;-73
2023/02/08 07:13:40;;;;;;;0.43;0.43;;;;;;;1.20;39.95;96948.63;5090261;28;20592;-70
2023/02/08 07:16:08;;;;;;;0.30;0.30;;;;;;;1.31;40.16;96956.16;5089271;28;20202;-71
2023/02/08 07:18:36;;;;;;;0.40;0.40;;;;;;;1.32;40.36;96965.53;5089713;28;20649;-71
2023/02/08 07:21:03;;;;;;;0.15;0.15;;;;;;;1.43;40.07;96970.47;5071503;28;20558;-73
2023/02/08 07:23:30;;;;;;;2.10;1.50;;;;;;;1.41;40.29;96972.38;5086760;28;20201;-73
2023/02/08 07:26:01;;;;;;;3.60;2.47;;;;;;;1.41;40.48;96972.38;5108107;28;20288;-73
2023/02/08 07:28:29;;;;;;;2.47;2.28;;;;;;;1.50;39.77;96941.31;5090291;28;20252;-72
2023/02/08 07:30:56;;;;;;;4.32;3.58;;;;;;;1.79;40.35;96959.94;5090345;28;20226;-70
2023/02/08 07:33:24;;;;;;;0.00;0.00;;;;;;;1.48;40.15;96963.09;5089986;28;20607;-73
2023/02/08 07:35:51;;;;;;;1.08;1.05;;;;;;;1.83;39.86;96974.19;5089023;28;20223;-73
2023/02/08 07:38:18;;;;;;;0.82;0.82;;;;;;;1.85;39.80;96966.28;5089328;28;20187;-70
2023/02/08 07:40:46;;;;;;;12.85;5.10;;;;;;;2.14;40.13;96961.63;5094182;28;20207;-69
2023/02/08 07:43:13;;;;;;;0.82;0.68;;;;;;;2.32;39.23;96964.94;5095026;28;20256;-71
2023/02/08 07:45:50;;;;;;;1.73;0.93;;;;;;;2.48;39.08;96964.22;5074304;28;20270;-75
2023/02/08 07:48:17;;;;;;;0.50;0.50;;;;;;;2.43;38.59;96946.56;5091035;28;20191;-74
2023/02/08 07:50:45;;;;;;;0.55;0.55;;;;;;;2.23;37.87;96965.88;5089955;28;20272;-74
2023/02/08 07:53:13;;;;;;;1.60;1.50;;;;;;;1.96;38.46;96953.09;5092214;28;20226;-72
2023/02/08 07:55:40;;;;;;;3.03;2.60;;;;;;;2.04;41.97;96966.09;5073754;28;20227;-75
2023/02/08 07:58:06;;;;;;;1.55;1.45;;;;;;;2.28;39.37;96948.09;5093206;28;20287;-74
2023/02/08 08:00:33;;;;;;;0.08;0.08;;;;;;;2.17;38.25;96943.22;5092855;28;20199;-74
2023/02/08 08:03:00;;;;;;;2.38;1.88;;;;;;;2.50;38.26;96952.75;5093200;28;20234;-73
2023/02/08 08:05:27;;;;;;;0.00;0.00;;;;;;;2.49;37.85;96940.78;5092291;28;20738;-72
2023/02/08 08:07:53;;;;;;;2.60;2.40;;;;;;;2.20;37.66;96927.41;5092884;28;20195;-71
2023/02/08 08:10:20;;;;;;;0.30;0.30;;;;;;;2.93;37.50;96950.00;5092949;28;20229;-72
2023/02/08 08:12:47;;;;;;;1.63;1.52;;;;;;;2.29;37.51;96947.16;5093228;28;20219;-71
2023/02/08 08:15:14;;;;;;;1.98;1.85;;;;;;;2.45;37.49;96934.28;5092645;28;20654;-73
2023/02/08 08:17:41;;;;;;;0.17;0.17;;;;;;;2.64;37.82;96934.06;5093259;28;20225;-72
2023/02/08 08:20:09;;;;;;;0.43;0.43;;;;;;;2.94;37.23;96923.13;5092940;28;20261;-72
2023/02/08 08:22:36;;;;;;;0.98;0.98;;;;;;;3.20;37.67;96919.59;5092987;28;20638;-73
2023/02/08 08:25:03;;;;;;;0.85;0.85;;;;;;;3.48;36.54;96941.66;5091847;28;20207;-73
2023/02/08 08:27:30;;;;;;;1.20;1.13;;;;;;;3.68;36.31;96955.91;5092000;28;20235;-73
2023/02/08 08:29:58;;;;;;;0.13;0.13;;;;;;;3.85;36.27;96937.59;5092020;28;20215;-72
2023/02/08 08:32:26;;;;;;;2.70;1.65;;;;;;;3.98;35.99;96973.38;5095334;28;20195;-70
2023/02/08 08:34:56;;;;;;;1.52;1.42;;;;;;;3.87;35.51;96934.81;5094778;28;20257;-75
2023/02/08 08:37:23;;;;;;;0.28;0.28;;;;;;;3.93;35.49;96952.31;5092923;28;20211;-73
2023/02/08 08:39:50;;;;;;;3.47;3.20;;;;;;;3.48;35.22;96955.44;5092049;28;20184;-73
2023/02/08 08:42:19;;;;;;;6.53;1.77;;;;;;;3.92;35.02;96937.75;5092069;28;20341;-74
2023/02/08 08:44:46;;;;;;;12.75;3.42;;;;;;;3.79;35.05;96947.81;5092131;28;20240;-74
2023/02/08 08:47:14;;;;;;;2.25;0.70;;;;;;;4.32;34.87;96945.44;5092334;28;20233;-74
2023/02/08 08:49:42;;;;;;;2.25;1.55;;;;;;;4.36;34.77;96941.53;5092248;28;20229;-75
2023/02/08 08:52:10;;;;;;;0.05;0.05;;;;;;;4.33;34.21;96954.84;5073449;28;20634;-74
2023/02/08 08:54:37;;;;;;;3.65;3.35;;;;;;;4.62;34.12;96957.66;5073611;28;20639;-74
2023/02/08 08:57:04;;;;;;;1.40;1.30;;;;;;;5.11;33.97;96964.25;5090833;28;20257;-72
2023/02/08 08:59:32;;;;;;;2.70;1.58;;;;;;;4.90;33.17;96969.25;5091811;28;20188;-72
2023/02/08 09:01:59;;;;;;;1.05;0.95;;;;;;;5.29;33.58;96971.00;5090885;28;20290;-72
2023/02/08 09:04:27;;;;;;;1.70;1.60;;;;;;;5.23;33.37;96950.88;5092163;28;20195;-73
2023/02/08 09:06:54;;;;;;;0.30;0.30;;;;;;;5.49;33.20;96956.56;5090544;28;20218;-74
2023/02/08 09:09:37;;;;;;;0.40;0.40;;;;;;;5.77;32.52;96975.81;5073270;28;20194;-73
2023/02/08 09:12:04;;;;;;;0.88;0.85;;;;;;;5.70;32.58;96974.91;5090640;28;20199;-76
2023/02/08 09:14:46;;;;;;;5.00;2.38;;;;;;;5.95;32.24;96984.16;5091570;28;20219;-74
2023/02/08 09:17:19;;;;;;;0.77;0.77;;;;;;;5.90;31.48;96970.88;5078661;28;20207;-72
2023/02/08 09:20:12;;;;;;;2.10;2.00;;;;;;;5.63;31.65;96958.38;5090280;28;20192;-74
2023/02/08 09:22:52;;;;;;;1.50;1.40;;;;;;;5.81;31.37;96961.50;5072333;28;20256;-72
2023/02/08 09:25:19;;;;;;;0.50;0.45;;;;;;;5.76;31.65;96979.44;5090073;28;20187;-75
2023/02/08 09:27:49;;;;;;;0.75;0.45;;;;;;;5.00;31.92;96910.06;5089937;28;20234;-74
2023/02/08 09:30:22;;;;;;;0.65;0.57;;;;;;;5.43;31.70;96988.44;5090313;28;20195;-73
2023/02/08 09:32:51;;;;;;;0.20;0.20;;;;;;;5.18;31.97;96963.56;5091590;28;20544;-73
2023/02/08 09:35:20;;;;;;;0.52;0.52;;;;;;;5.13;32.13;96962.28;5078507;28;20247;-72
2023/02/08 09:37:56;;;;;;;0.38;0.38;;;;;;;5.14;31.78;96969.13;5091309;28;20190;-73
2023/02/08 09:40:42;;;;;;;0.73;0.73;;;;;;;5.49;31.02;96936.53;5091212;28;20191;-73
2023/02/08 09:43:46;;;;;;;0.00;0.00;;;;;;;6.67;30.31;96980.03;5072849;28;20194;-72
2023/02/08 09:46:21;;;;;;;0.00;0.00;;;;;;;7.16;30.07;96965.41;5082839;28;20226;-73
2023/02/08 09:48:51;;;;;;;1.08;0.65;;;;;;;7.01;29.72;96962.03;5091670;28;20191;-72
2023/02/08 09:51:38;;;;;;;1.00;0.93;;;;;;;7.53;29.00;96933.91;5090824;28;20281;-73
2023/02/08 09:54:31;;;;;;;0.00;0.00;;;;;;;7.93;28.93;96961.16;5090983;28;20201;-71
2023/02/08 09:57:05;;;;;;;0.03;0.03;;;;;;;7.60;28.94;96952.22;5090716;28;20295;-73
2023/02/08 09:59:34;;;;;;;0.90;0.90;;;;;;;7.69;29.01;96951.91;5078412;28;20653;-71
2023/02/08 10:02:17;;;;;;;0.47;0.47;;;;;;;7.35;29.17;96950.97;5072756;28;20217;-73
2023/02/08 10:05:12;;;;;;;3.28;1.73;;;;;;;6.16;30.52;96971.31;5091494;28;20211;-72
2023/02/08 10:07:41;;;;;;;4.03;1.95;;;;;;;6.10;30.82;96961.59;5078733;28;20544;-72
2023/02/08 10:10:37;;;;;;;0.00;0.00;;;;;;;6.63;30.48;96943.13;5090327;28;20657;-72
2023/02/08 10:13:18;;;;;;;5.97;1.45;;;;;;;7.07;30.70;96951.69;5068704;28;20203;-71
2023/02/08 10:16:16;;;;;;;0.00;0.00;;;;;;;6.88;30.25;96941.81;5078858;28;20251;-71
2023/02/08 10:19:10;;;;;;;0.43;0.43;;;;;;;7.41;28.68;96932.00;5090366;28;20642;-71
2023/02/08 10:22:12;;;;;;;0.00;0.00;;;;;;;6.60;29.72;96948.72;5090033;28;20665;-73
2023/02/08 10:25:03;;;;;;;1.35;1.27;;;;;;;6.86;29.03;96949.03;5090937;28;20230;-71
2023/02/08 10:27:48;;;;;;;1.45;1.30;;;;;;;6.35;29.26;96939.53;5104336;28;20231;-73
2023/02/08 10:30:15;;;;;;;0.22;0.22;;;;;;;7.31;30.11;96942.72;5091397;28;20662;-71
2023/02/08 10:32:54;;;;;;;1.02;0.95;;;;;;;6.93;28.81;96942.09;5090868;28;20658;-72
2023/02/08 10:35:31;;;;;;;0.00;0.00;;;;;;;7.06;30.00;96931.81;5080819;28;20221;-72
2023/02/08 10:38:27;;;;;;;0.22;0.22;;;;;;;6.67;28.30;96949.59;5090715;28;20199;-71
2023/02/08 10:41:19;;;;;;;2.80;1.30;;;;;;;6.94;28.21;96925.47;5089812;28;20252;-72
2023/02/08 10:44:35;;;;;;;0.10;0.10;;;;;;;7.28;28.94;96926.63;5090462;28;20203;-71
2023/02/08 10:47:27;;;;;;;0.75;0.32;;;;;;;7.94;28.41;96949.72;5059014;28;20325;-70
2023/02/08 10:50:05;;;;;;;0.10;0.10;;;;;;;8.31;28.99;96938.97;5089877;28;20213;-71
2023/02/08 10:52:34;;;;;;;0.25;0.25;;;;;;;8.02;29.27;96933.91;5089947;28;20274;-71
2023/02/08 10:55:16;;;;;;;2.05;1.95;;;;;;;6.97;29.36;96951.16;5089812;28;20191;-71
2023/02/08 10:57:47;;;;;;;0.30;0.30;;;;;;;6.94;29.88;96943.72;5090530;28;20199;-72
2023/02/08 11:00:21;;;;;;;0.65;0.65;;;;;;;6.70;31.43;96948.41;5089631;28;20199;-71
2023/02/08 11:02:50;;;;;;;0.30;0.30;;;;;;;5.86;30.75;96967.00;5089979;28;20657;-71
2023/02/08 11:05:34;;;;;;;0.10;0.10;;;;;;;5.21;31.77;96974.44;5080706;28;20230;-72
2023/02/08 11:08:10;;;;;;;0.00;0.00;;;;;;;4.79;32.16;96969.63;5090706;28;20634;-71
2023/02/08 11:10:42;;;;;;;0.00;0.00;;;;;;;5.00;32.06;96956.84;5089790;28;20195;-71
2023/02/08 11:13:19;;;;;;;1.75;1.65;;;;;;;5.00;32.62;96962.03;5091482;28;20195;-71
2023/02/08 11:15:54;;;;;;;0.30;0.30;;;;;;;4.69;33.19;96958.59;5090410;28;20194;-70
2023/02/08 11:18:33;;;;;;;1.75;1.27;;;;;;;4.58;33.76;96976.38;5089811;28;20615;-71
2023/02/08 11:21:22;;;;;;;0.68;0.68;;;;;;;4.28;33.91;96953.72;5089714;28;20348;-72
2023/02/08 11:23:53;;;;;;;4.85;1.00;;;;;;;4.04;34.55;96967.56;5090451;28;20183;-72
2023/02/08 11:26:20;;;;;;;0.10;0.10;;;;;;;4.24;33.78;96979.19;5088539;28;20330;-73
2023/02/08 11:29:10;;;;;;;0.40;0.17;;;;;;;4.64;33.49;96976.50;5090371;28;20203;-70
2023/02/08 11:31:58;;;;;;;3.25;1.23;;;;;;;4.62;33.50;96978.44;5092859;28;20263;-73
2023/02/08 11:34:34;;;;;;;0.00;0.00;;;;;;;4.44;34.11;96964.06;5094049;28;20195;-71
2023/02/08 11:37:21;;;;;;;0.00;0.00;;;;;;;4.13;34.02;96958.78;5081746;28;20198;-72
2023/02/08 11:39:59;;;;;;;0.25;0.25;;;;;;;4.00;33.62;96950.69;5093363;28;20191;-71
2023/02/08 11:42:36;;;;;;;1.80;1.65;;;;;;;4.24;33.22;96962.81;5095096;28;20191;-72
2023/02/08 11:45:06;;;;;;;1.85;1.75;;;;;;;3.96;33.90;96949.41;5080618;28;20191;-73
2023/02/08 11:47:39;;;;;;;0.43;0.43;;;;;;;4.07;34.04;96967.22;5093646;28;20221;-71
2023/02/08 11:50:07;;;;;;;0.65;0.60;;;;;;;4.32;34.08;96966.22;5093279;28;20274;-71
2023/02/08 11:52:42;;;;;;;0.10;0.10;;;;;;;4.13;33.93;96966.56;5093813;28;20198;-72
2023/02/08 11:55:31;;;;;;;0.00;0.00;;;;;;;4.12;33.92;96975.34;5093091;28;21007;-72
2023/02/08 11:58:11;;;;;;;1.75;1.20;;;;;;;4.18;33.51;96985.03;5063093;28;20556;-72
2023/02/08 12:00:40;;;;;;;2.42;2.22;;;;;;;4.02;33.43;96974.69;5078983;28;20298;-71
2023/02/08 12:03:17;;;;;;;0.70;0.70;;;;;;;4.19;33.65;96978.88;5093899;28;20202;-72
2023/02/08 12:05:44;;;;;;;0.00;0.00;;;;;;;4.12;33.93;96986.50;5093989;28;20308;-73
2023/02/08 12:08:58;;;;;;;2.75;1.27;;;;;;;4.23;34.26;96977.59;5093551;28;20222;-71